sensor_id;sensor_type;location;lat;lon;timestamp;P1;durP1;ratioP1;P2;durP2;ratioP2
51382;SDS011;37475;43.358;1.248;2023-07-20T00:01:26;17.40;;;7.45;;
51382;SDS011;37475;43.358;1.248;2023-07-20T00:03:52;16.48;;;7.30;;
51382;SDS011;37475;43.358;1.248;2023-07-20T00:06:26;18.23;;;8.02;;
51382;SDS011;37475;43.358;1.248;2023-07-20T00:08:53;15.98;;;7.72;;
51382;SDS011;37475;43.358;1.248;2023-07-20T00:11:20;17.55;;;7.88;;
51382;SDS011;37475;43.358;1.248;2023-07-20T00:13:50;15.95;;;7.60;;
51382;SDS011;37475;43.358;1.248;2023-07-20T00:16:15;14.40;;;7.53;;
51382;SDS011;37475;43.358;1.248;2023-07-20T00:18:41;19.15;;;8.25;;
51382;SDS011;37475;43.358;1.248;2023-07-20T00:21:07;16.40;;;7.97;;
51382;SDS011;37475;43.358;1.248;2023-07-20T00:23:33;15.13;;;8.05;;
51382;SDS011;37475;43.358;1.248;2023-07-20T00:25:59;15.80;;;7.38;;
51382;SDS011;37475;43.358;1.248;2023-07-20T00:28:24;16.85;;;7.75;;
51382;SDS011;37475;43.358;1.248;2023-07-20T00:30:50;12.45;;;7.60;;
51382;SDS011;37475;43.358;1.248;2023-07-20T00:33:16;14.43;;;7.63;;
51382;SDS011;37475;43.358;1.248;2023-07-20T00:35:43;17.58;;;8.13;;
51382;SDS011;37475;43.358;1.248;2023-07-20T00:38:09;15.35;;;7.78;;
51382;SDS011;37475;43.358;1.248;2023-07-20T00:40:39;15.38;;;7.82;;
51382;SDS011;37475;43.358;1.248;2023-07-20T00:43:06;14.50;;;7.72;;
51382;SDS011;37475;43.358;1.248;2023-07-20T00:45:33;16.23;;;7.57;;
51382;SDS011;37475;43.358;1.248;2023-07-20T00:47:59;15.63;;;7.32;;
51382;SDS011;37475;43.358;1.248;2023-07-20T00:50:26;18.52;;;7.55;;
51382;SDS011;37475;43.358;1.248;2023-07-20T00:52:54;14.35;;;7.15;;
51382;SDS011;37475;43.358;1.248;2023-07-20T00:55:22;16.08;;;8.13;;
51382;SDS011;37475;43.358;1.248;2023-07-20T00:57:49;13.00;;;7.20;;
51382;SDS011;37475;43.358;1.248;2023-07-20T01:00:16;18.05;;;7.53;;
51382;SDS011;37475;43.358;1.248;2023-07-20T01:02:42;14.25;;;8.00;;
51382;SDS011;37475;43.358;1.248;2023-07-20T01:05:08;13.55;;;7.75;;
51382;SDS011;37475;43.358;1.248;2023-07-20T01:07:35;13.60;;;7.60;;
51382;SDS011;37475;43.358;1.248;2023-07-20T01:13:06;15.48;;;7.63;;
51382;SDS011;37475;43.358;1.248;2023-07-20T01:15:35;15.38;;;7.80;;
51382;SDS011;37475;43.358;1.248;2023-07-20T01:18:01;17.40;;;7.80;;
51382;SDS011;37475;43.358;1.248;2023-07-20T01:20:29;15.93;;;7.45;;
51382;SDS011;37475;43.358;1.248;2023-07-20T01:23:07;19.65;;;8.07;;
51382;SDS011;37475;43.358;1.248;2023-07-20T01:32:19;13.65;;;7.07;;
51382;SDS011;37475;43.358;1.248;2023-07-20T01:34:50;15.52;;;7.63;;
51382;SDS011;37475;43.358;1.248;2023-07-20T01:37:20;16.38;;;8.10;;
51382;SDS011;37475;43.358;1.248;2023-07-20T01:39:50;19.05;;;8.07;;
51382;SDS011;37475;43.358;1.248;2023-07-20T01:42:20;17.73;;;8.27;;
51382;SDS011;37475;43.358;1.248;2023-07-20T01:44:53;18.00;;;7.85;;
51382;SDS011;37475;43.358;1.248;2023-07-20T01:47:19;15.27;;;7.65;;
51382;SDS011;37475;43.358;1.248;2023-07-20T01:49:44;17.05;;;8.10;;
51382;SDS011;37475;43.358;1.248;2023-07-20T01:52:10;15.45;;;8.07;;
51382;SDS011;37475;43.358;1.248;2023-07-20T01:54:36;17.63;;;7.97;;
51382;SDS011;37475;43.358;1.248;2023-07-20T01:57:02;19.10;;;7.82;;
51382;SDS011;37475;43.358;1.248;2023-07-20T01:59:29;14.88;;;8.02;;
51382;SDS011;37475;43.358;1.248;2023-07-20T02:01:54;20.00;;;7.70;;
51382;SDS011;37475;43.358;1.248;2023-07-20T02:04:20;13.93;;;7.55;;
51382;SDS011;37475;43.358;1.248;2023-07-20T02:06:46;15.18;;;7.65;;
51382;SDS011;37475;43.358;1.248;2023-07-20T02:09:12;16.60;;;8.23;;
51382;SDS011;37475;43.358;1.248;2023-07-20T02:11:37;15.90;;;7.85;;
51382;SDS011;37475;43.358;1.248;2023-07-20T02:14:03;19.90;;;8.52;;
51382;SDS011;37475;43.358;1.248;2023-07-20T02:16:29;17.27;;;8.25;;
51382;SDS011;37475;43.358;1.248;2023-07-20T02:18:55;15.80;;;8.50;;
51382;SDS011;37475;43.358;1.248;2023-07-20T02:21:22;17.52;;;8.20;;
51382;SDS011;37475;43.358;1.248;2023-07-20T02:23:48;18.00;;;8.32;;
51382;SDS011;37475;43.358;1.248;2023-07-20T02:26:14;17.98;;;7.88;;
51382;SDS011;37475;43.358;1.248;2023-07-20T02:28:40;15.45;;;8.40;;
51382;SDS011;37475;43.358;1.248;2023-07-20T02:31:06;19.35;;;8.07;;
51382;SDS011;37475;43.358;1.248;2023-07-20T02:33:32;15.40;;;7.90;;
51382;SDS011;37475;43.358;1.248;2023-07-20T02:35:58;16.20;;;8.05;;
51382;SDS011;37475;43.358;1.248;2023-07-20T02:38:23;16.33;;;8.20;;
51382;SDS011;37475;43.358;1.248;2023-07-20T02:40:49;15.43;;;8.15;;
51382;SDS011;37475;43.358;1.248;2023-07-20T02:43:16;20.02;;;8.68;;
51382;SDS011;37475;43.358;1.248;2023-07-20T02:45:42;15.15;;;7.97;;
51382;SDS011;37475;43.358;1.248;2023-07-20T02:48:08;16.88;;;8.60;;
51382;SDS011;37475;43.358;1.248;2023-07-20T02:50:34;18.42;;;8.25;;
51382;SDS011;37475;43.358;1.248;2023-07-20T02:53:00;16.77;;;8.20;;
51382;SDS011;37475;43.358;1.248;2023-07-20T02:55:26;16.58;;;8.63;;
51382;SDS011;37475;43.358;1.248;2023-07-20T02:57:52;15.68;;;8.18;;
51382;SDS011;37475;43.358;1.248;2023-07-20T03:00:18;15.93;;;8.65;;
51382;SDS011;37475;43.358;1.248;2023-07-20T03:02:48;15.55;;;8.77;;
51382;SDS011;37475;43.358;1.248;2023-07-20T03:05:14;16.05;;;8.23;;
51382;SDS011;37475;43.358;1.248;2023-07-20T03:07:41;15.70;;;8.73;;
51382;SDS011;37475;43.358;1.248;2023-07-20T03:10:08;17.15;;;7.90;;
51382;SDS011;37475;43.358;1.248;2023-07-20T03:12:35;15.30;;;8.55;;
51382;SDS011;37475;43.358;1.248;2023-07-20T03:15:01;18.13;;;9.00;;
51382;SDS011;37475;43.358;1.248;2023-07-20T03:17:28;15.38;;;8.25;;
51382;SDS011;37475;43.358;1.248;2023-07-20T03:19:54;16.15;;;8.80;;
51382;SDS011;37475;43.358;1.248;2023-07-20T03:22:20;18.55;;;9.15;;
51382;SDS011;37475;43.358;1.248;2023-07-20T03:24:47;16.30;;;8.43;;
51382;SDS011;37475;43.358;1.248;2023-07-20T03:27:13;17.13;;;8.63;;
51382;SDS011;37475;43.358;1.248;2023-07-20T03:29:39;15.43;;;8.05;;
51382;SDS011;37475;43.358;1.248;2023-07-20T03:32:05;16.85;;;8.38;;
51382;SDS011;37475;43.358;1.248;2023-07-20T03:34:31;15.40;;;8.00;;
51382;SDS011;37475;43.358;1.248;2023-07-20T03:36:57;16.88;;;8.27;;
51382;SDS011;37475;43.358;1.248;2023-07-20T03:39:24;15.05;;;8.55;;
51382;SDS011;37475;43.358;1.248;2023-07-20T03:41:50;17.15;;;8.20;;
51382;SDS011;37475;43.358;1.248;2023-07-20T03:44:15;16.48;;;8.35;;
51382;SDS011;37475;43.358;1.248;2023-07-20T03:46:41;16.40;;;8.18;;
51382;SDS011;37475;43.358;1.248;2023-07-20T03:49:07;20.33;;;8.60;;
51382;SDS011;37475;43.358;1.248;2023-07-20T03:51:33;15.73;;;8.68;;
51382;SDS011;37475;43.358;1.248;2023-07-20T03:54:00;18.02;;;8.80;;
51382;SDS011;37475;43.358;1.248;2023-07-20T03:56:26;17.33;;;8.65;;
51382;SDS011;37475;43.358;1.248;2023-07-20T03:58:52;17.85;;;8.75;;
51382;SDS011;37475;43.358;1.248;2023-07-20T04:01:17;15.10;;;8.70;;
51382;SDS011;37475;43.358;1.248;2023-07-20T04:03:43;15.90;;;8.95;;
51382;SDS011;37475;43.358;1.248;2023-07-20T04:06:09;16.40;;;8.48;;
51382;SDS011;37475;43.358;1.248;2023-07-20T04:08:35;15.18;;;8.25;;
51382;SDS011;37475;43.358;1.248;2023-07-20T04:11:02;18.40;;;8.63;;
51382;SDS011;37475;43.358;1.248;2023-07-20T04:13:28;19.23;;;9.02;;
51382;SDS011;37475;43.358;1.248;2023-07-20T04:15:59;16.52;;;8.52;;
51382;SDS011;37475;43.358;1.248;2023-07-20T04:18:25;17.23;;;8.68;;
51382;SDS011;37475;43.358;1.248;2023-07-20T04:20:51;21.13;;;8.98;;
51382;SDS011;37475;43.358;1.248;2023-07-20T04:23:16;17.30;;;8.90;;
51382;SDS011;37475;43.358;1.248;2023-07-20T04:25:43;15.02;;;8.30;;
51382;SDS011;37475;43.358;1.248;2023-07-20T04:28:09;16.05;;;8.35;;
51382;SDS011;37475;43.358;1.248;2023-07-20T04:30:35;19.25;;;8.82;;
51382;SDS011;37475;43.358;1.248;2023-07-20T04:33:02;16.83;;;8.68;;
51382;SDS011;37475;43.358;1.248;2023-07-20T04:35:44;17.67;;;8.82;;
51382;SDS011;37475;43.358;1.248;2023-07-20T04:38:14;23.75;;;9.65;;
51382;SDS011;37475;43.358;1.248;2023-07-20T04:40:45;25.50;;;9.88;;
51382;SDS011;37475;43.358;1.248;2023-07-20T04:43:14;20.02;;;8.98;;
51382;SDS011;37475;43.358;1.248;2023-07-20T04:45:40;20.58;;;9.00;;
51382;SDS011;37475;43.358;1.248;2023-07-20T04:48:08;17.77;;;9.68;;
51382;SDS011;37475;43.358;1.248;2023-07-20T04:50:37;14.98;;;8.73;;
51382;SDS011;37475;43.358;1.248;2023-07-20T04:53:03;16.98;;;9.00;;
51382;SDS011;37475;43.358;1.248;2023-07-20T04:55:30;15.50;;;8.35;;
51382;SDS011;37475;43.358;1.248;2023-07-20T04:57:55;20.38;;;9.40;;
51382;SDS011;37475;43.358;1.248;2023-07-20T05:00:21;17.25;;;9.13;;
51382;SDS011;37475;43.358;1.248;2023-07-20T05:02:47;15.77;;;9.00;;
51382;SDS011;37475;43.358;1.248;2023-07-20T05:05:14;19.23;;;9.13;;
51382;SDS011;37475;43.358;1.248;2023-07-20T05:07:40;18.67;;;10.60;;
51382;SDS011;37475;43.358;1.248;2023-07-20T05:10:06;16.88;;;9.93;;
51382;SDS011;37475;43.358;1.248;2023-07-20T05:12:32;19.77;;;9.65;;
51382;SDS011;37475;43.358;1.248;2023-07-20T05:14:58;18.45;;;9.85;;
51382;SDS011;37475;43.358;1.248;2023-07-20T05:17:24;19.33;;;10.50;;
51382;SDS011;37475;43.358;1.248;2023-07-20T05:19:50;15.95;;;8.98;;
51382;SDS011;37475;43.358;1.248;2023-07-20T05:22:16;17.40;;;8.55;;
51382;SDS011;37475;43.358;1.248;2023-07-20T05:24:42;16.42;;;8.73;;
51382;SDS011;37475;43.358;1.248;2023-07-20T05:27:08;17.23;;;8.30;;
51382;SDS011;37475;43.358;1.248;2023-07-20T05:29:34;18.17;;;8.15;;
51382;SDS011;37475;43.358;1.248;2023-07-20T05:31:59;17.70;;;8.43;;
51382;SDS011;37475;43.358;1.248;2023-07-20T05:34:25;17.75;;;8.32;;
51382;SDS011;37475;43.358;1.248;2023-07-20T05:36:51;19.75;;;8.40;;
51382;SDS011;37475;43.358;1.248;2023-07-20T05:39:17;15.85;;;7.70;;
51382;SDS011;37475;43.358;1.248;2023-07-20T05:41:43;15.40;;;7.50;;
51382;SDS011;37475;43.358;1.248;2023-07-20T05:44:09;13.30;;;7.32;;
51382;SDS011;37475;43.358;1.248;2023-07-20T05:46:34;14.73;;;7.90;;
51382;SDS011;37475;43.358;1.248;2023-07-20T05:49:00;15.88;;;8.02;;
51382;SDS011;37475;43.358;1.248;2023-07-20T05:51:27;15.82;;;7.85;;
51382;SDS011;37475;43.358;1.248;2023-07-20T05:53:52;16.30;;;8.38;;
51382;SDS011;37475;43.358;1.248;2023-07-20T05:56:18;20.02;;;8.43;;
51382;SDS011;37475;43.358;1.248;2023-07-20T05:58:44;15.93;;;7.68;;
51382;SDS011;37475;43.358;1.248;2023-07-20T06:01:10;17.88;;;8.35;;
51382;SDS011;37475;43.358;1.248;2023-07-20T06:03:36;12.85;;;7.45;;
51382;SDS011;37475;43.358;1.248;2023-07-20T06:06:02;14.40;;;7.25;;
51382;SDS011;37475;43.358;1.248;2023-07-20T06:08:34;12.82;;;7.32;;
51382;SDS011;37475;43.358;1.248;2023-07-20T06:11:00;13.13;;;7.07;;
51382;SDS011;37475;43.358;1.248;2023-07-20T06:13:25;13.73;;;6.75;;
51382;SDS011;37475;43.358;1.248;2023-07-20T06:15:51;13.48;;;6.10;;
51382;SDS011;37475;43.358;1.248;2023-07-20T06:18:17;11.88;;;6.47;;
51382;SDS011;37475;43.358;1.248;2023-07-20T06:20:48;13.48;;;6.05;;
51382;SDS011;37475;43.358;1.248;2023-07-20T06:23:15;10.07;;;6.53;;
51382;SDS011;37475;43.358;1.248;2023-07-20T06:25:42;13.05;;;6.90;;
51382;SDS011;37475;43.358;1.248;2023-07-20T06:28:08;11.93;;;6.50;;
51382;SDS011;37475;43.358;1.248;2023-07-20T06:30:34;13.30;;;7.13;;
51382;SDS011;37475;43.358;1.248;2023-07-20T06:33:00;14.77;;;6.05;;
51382;SDS011;37475;43.358;1.248;2023-07-20T06:35:25;11.95;;;6.43;;
51382;SDS011;37475;43.358;1.248;2023-07-20T06:37:51;12.63;;;6.25;;
51382;SDS011;37475;43.358;1.248;2023-07-20T06:40:17;11.80;;;5.70;;
51382;SDS011;37475;43.358;1.248;2023-07-20T06:42:43;11.18;;;5.70;;
51382;SDS011;37475;43.358;1.248;2023-07-20T06:45:09;10.05;;;6.18;;
51382;SDS011;37475;43.358;1.248;2023-07-20T06:47:39;13.07;;;5.72;;
51382;SDS011;37475;43.358;1.248;2023-07-20T06:50:08;10.95;;;5.57;;
51382;SDS011;37475;43.358;1.248;2023-07-20T06:52:35;12.65;;;5.40;;
51382;SDS011;37475;43.358;1.248;2023-07-20T06:55:01;7.40;;;4.80;;
51382;SDS011;37475;43.358;1.248;2023-07-20T06:57:28;10.70;;;5.95;;
51382;SDS011;37475;43.358;1.248;2023-07-20T06:59:54;9.68;;;5.00;;
51382;SDS011;37475;43.358;1.248;2023-07-20T07:02:19;13.70;;;5.40;;
51382;SDS011;37475;43.358;1.248;2023-07-20T07:04:45;9.50;;;4.90;;
51382;SDS011;37475;43.358;1.248;2023-07-20T07:07:13;10.43;;;5.28;;
51382;SDS011;37475;43.358;1.248;2023-07-20T07:09:40;9.10;;;5.05;;
51382;SDS011;37475;43.358;1.248;2023-07-20T07:12:07;7.13;;;4.30;;
51382;SDS011;37475;43.358;1.248;2023-07-20T07:14:33;9.25;;;4.85;;
51382;SDS011;37475;43.358;1.248;2023-07-20T07:16:59;8.82;;;4.78;;
51382;SDS011;37475;43.358;1.248;2023-07-20T07:19:25;9.27;;;4.80;;
51382;SDS011;37475;43.358;1.248;2023-07-20T07:21:51;7.45;;;4.65;;
51382;SDS011;37475;43.358;1.248;2023-07-20T07:24:17;8.07;;;4.32;;
51382;SDS011;37475;43.358;1.248;2023-07-20T07:26:43;9.63;;;4.28;;
51382;SDS011;37475;43.358;1.248;2023-07-20T07:29:09;10.00;;;3.92;;
51382;SDS011;37475;43.358;1.248;2023-07-20T07:31:35;9.40;;;3.65;;
51382;SDS011;37475;43.358;1.248;2023-07-20T07:34:01;7.00;;;3.67;;
51382;SDS011;37475;43.358;1.248;2023-07-20T07:36:28;8.38;;;3.97;;
51382;SDS011;37475;43.358;1.248;2023-07-20T07:38:54;9.27;;;3.67;;
51382;SDS011;37475;43.358;1.248;2023-07-20T07:41:19;8.13;;;3.80;;
51382;SDS011;37475;43.358;1.248;2023-07-20T07:43:46;8.25;;;3.35;;
51382;SDS011;37475;43.358;1.248;2023-07-20T07:46:11;8.13;;;3.80;;
51382;SDS011;37475;43.358;1.248;2023-07-20T07:48:38;6.97;;;3.72;;
51382;SDS011;37475;43.358;1.248;2023-07-20T07:51:04;7.03;;;3.90;;
51382;SDS011;37475;43.358;1.248;2023-07-20T07:53:30;8.70;;;3.60;;
51382;SDS011;37475;43.358;1.248;2023-07-20T07:55:57;5.53;;;3.30;;
51382;SDS011;37475;43.358;1.248;2023-07-20T07:58:23;8.10;;;3.50;;
51382;SDS011;37475;43.358;1.248;2023-07-20T08:00:49;6.32;;;3.13;;
51382;SDS011;37475;43.358;1.248;2023-07-20T08:03:15;5.75;;;3.45;;
51382;SDS011;37475;43.358;1.248;2023-07-20T08:05:41;7.43;;;3.33;;
51382;SDS011;37475;43.358;1.248;2023-07-20T08:08:07;6.93;;;3.22;;
51382;SDS011;37475;43.358;1.248;2023-07-20T08:10:34;8.23;;;3.30;;
51382;SDS011;37475;43.358;1.248;2023-07-20T08:13:00;7.47;;;3.30;;
51382;SDS011;37475;43.358;1.248;2023-07-20T08:15:26;7.47;;;2.85;;
51382;SDS011;37475;43.358;1.248;2023-07-20T08:17:51;6.47;;;2.90;;
51382;SDS011;37475;43.358;1.248;2023-07-20T08:20:17;8.75;;;3.08;;
51382;SDS011;37475;43.358;1.248;2023-07-20T08:22:43;5.07;;;2.70;;
51382;SDS011;37475;43.358;1.248;2023-07-20T08:25:10;7.60;;;2.90;;
51382;SDS011;37475;43.358;1.248;2023-07-20T08:27:36;6.18;;;2.92;;
51382;SDS011;37475;43.358;1.248;2023-07-20T08:30:02;5.65;;;3.00;;
51382;SDS011;37475;43.358;1.248;2023-07-20T08:32:29;6.97;;;2.90;;
51382;SDS011;37475;43.358;1.248;2023-07-20T08:34:55;6.35;;;2.70;;
51382;SDS011;37475;43.358;1.248;2023-07-20T08:37:22;7.25;;;2.60;;
51382;SDS011;37475;43.358;1.248;2023-07-20T08:39:47;7.78;;;2.70;;
51382;SDS011;37475;43.358;1.248;2023-07-20T08:42:14;4.03;;;2.20;;
51382;SDS011;37475;43.358;1.248;2023-07-20T08:44:41;5.15;;;2.20;;
51382;SDS011;37475;43.358;1.248;2023-07-20T08:47:08;6.55;;;2.72;;
51382;SDS011;37475;43.358;1.248;2023-07-20T08:49:35;8.20;;;2.53;;
51382;SDS011;37475;43.358;1.248;2023-07-20T08:52:04;4.65;;;2.40;;
51382;SDS011;37475;43.358;1.248;2023-07-20T08:54:30;5.40;;;2.55;;
51382;SDS011;37475;43.358;1.248;2023-07-20T08:57:01;4.82;;;2.40;;
51382;SDS011;37475;43.358;1.248;2023-07-20T08:59:29;6.00;;;2.30;;
51382;SDS011;37475;43.358;1.248;2023-07-20T09:01:58;5.30;;;2.30;;
51382;SDS011;37475;43.358;1.248;2023-07-20T09:04:25;5.75;;;2.20;;
51382;SDS011;37475;43.358;1.248;2023-07-20T09:06:51;4.25;;;2.40;;
51382;SDS011;37475;43.358;1.248;2023-07-20T09:09:17;3.95;;;2.13;;
51382;SDS011;37475;43.358;1.248;2023-07-20T09:11:43;4.40;;;2.30;;
51382;SDS011;37475;43.358;1.248;2023-07-20T09:14:14;6.40;;;2.20;;
51382;SDS011;37475;43.358;1.248;2023-07-20T09:16:49;6.68;;;2.20;;
51382;SDS011;37475;43.358;1.248;2023-07-20T09:19:18;8.32;;;2.20;;
51382;SDS011;37475;43.358;1.248;2023-07-20T09:21:44;4.63;;;2.25;;
51382;SDS011;37475;43.358;1.248;2023-07-20T09:24:16;5.85;;;2.33;;
51382;SDS011;37475;43.358;1.248;2023-07-20T09:26:44;10.98;;;2.40;;
51382;SDS011;37475;43.358;1.248;2023-07-20T09:29:19;8.05;;;2.35;;
51382;SDS011;37475;43.358;1.248;2023-07-20T09:32:03;5.25;;;2.40;;
51382;SDS011;37475;43.358;1.248;2023-07-20T09:34:30;9.65;;;2.38;;
51382;SDS011;37475;43.358;1.248;2023-07-20T09:36:57;5.03;;;2.13;;
51382;SDS011;37475;43.358;1.248;2023-07-20T09:39:24;7.13;;;2.15;;
51382;SDS011;37475;43.358;1.248;2023-07-20T09:41:51;6.07;;;2.10;;
51382;SDS011;37475;43.358;1.248;2023-07-20T09:44:17;3.95;;;1.67;;
51382;SDS011;37475;43.358;1.248;2023-07-20T09:46:44;4.60;;;1.83;;
51382;SDS011;37475;43.358;1.248;2023-07-20T09:49:14;4.43;;;1.70;;
51382;SDS011;37475;43.358;1.248;2023-07-20T09:51:42;3.75;;;1.73;;
51382;SDS011;37475;43.358;1.248;2023-07-20T09:54:10;6.65;;;1.77;;
51382;SDS011;37475;43.358;1.248;2023-07-20T09:56:36;4.40;;;1.98;;
51382;SDS011;37475;43.358;1.248;2023-07-20T09:59:04;3.95;;;1.90;;
51382;SDS011;37475;43.358;1.248;2023-07-20T10:01:29;4.85;;;2.15;;
51382;SDS011;37475;43.358;1.248;2023-07-20T10:03:58;5.80;;;2.00;;
51382;SDS011;37475;43.358;1.248;2023-07-20T10:06:26;7.80;;;2.58;;
51382;SDS011;37475;43.358;1.248;2023-07-20T10:08:55;4.32;;;1.98;;
51382;SDS011;37475;43.358;1.248;2023-07-20T10:13:55;5.63;;;2.20;;
51382;SDS011;37475;43.358;1.248;2023-07-20T10:16:36;5.55;;;2.03;;
51382;SDS011;37475;43.358;1.248;2023-07-20T10:21:47;3.90;;;2.03;;
51382;SDS011;37475;43.358;1.248;2023-07-20T10:24:19;7.03;;;2.17;;
51382;SDS011;37475;43.358;1.248;2023-07-20T10:26:45;4.38;;;2.20;;
51382;SDS011;37475;43.358;1.248;2023-07-20T10:29:10;3.95;;;1.90;;
51382;SDS011;37475;43.358;1.248;2023-07-20T10:31:37;7.60;;;1.85;;
51382;SDS011;37475;43.358;1.248;2023-07-20T10:34:04;6.28;;;2.10;;
51382;SDS011;37475;43.358;1.248;2023-07-20T10:36:30;4.43;;;1.92;;
51382;SDS011;37475;43.358;1.248;2023-07-20T10:38:56;4.63;;;1.77;;
51382;SDS011;37475;43.358;1.248;2023-07-20T10:44:02;4.15;;;1.98;;
51382;SDS011;37475;43.358;1.248;2023-07-20T10:49:06;4.97;;;2.10;;
51382;SDS011;37475;43.358;1.248;2023-07-20T10:56:41;4.50;;;1.70;;
51382;SDS011;37475;43.358;1.248;2023-07-20T10:59:20;7.60;;;2.30;;
51382;SDS011;37475;43.358;1.248;2023-07-20T11:02:05;4.25;;;1.90;;
51382;SDS011;37475;43.358;1.248;2023-07-20T11:04:38;4.03;;;1.80;;
51382;SDS011;37475;43.358;1.248;2023-07-20T11:07:06;3.88;;;1.83;;
51382;SDS011;37475;43.358;1.248;2023-07-20T11:09:36;4.53;;;2.28;;
51382;SDS011;37475;43.358;1.248;2023-07-20T11:12:36;4.43;;;1.92;;
51382;SDS011;37475;43.358;1.248;2023-07-20T11:14:55;5.35;;;2.40;;
51382;SDS011;37475;43.358;1.248;2023-07-20T11:17:29;5.00;;;2.00;;
51382;SDS011;37475;43.358;1.248;2023-07-20T11:19:56;5.20;;;2.00;;
51382;SDS011;37475;43.358;1.248;2023-07-20T11:22:25;7.50;;;1.90;;
51382;SDS011;37475;43.358;1.248;2023-07-20T11:24:55;4.40;;;2.08;;
51382;SDS011;37475;43.358;1.248;2023-07-20T11:27:21;10.35;;;2.42;;
51382;SDS011;37475;43.358;1.248;2023-07-20T11:29:49;3.80;;;1.80;;
51382;SDS011;37475;43.358;1.248;2023-07-20T11:32:24;7.63;;;2.05;;
51382;SDS011;37475;43.358;1.248;2023-07-20T11:34:50;4.15;;;1.92;;
51382;SDS011;37475;43.358;1.248;2023-07-20T11:37:16;5.07;;;2.42;;
51382;SDS011;37475;43.358;1.248;2023-07-20T11:39:43;6.93;;;1.77;;
51382;SDS011;37475;43.358;1.248;2023-07-20T11:42:09;6.68;;;2.03;;
51382;SDS011;37475;43.358;1.248;2023-07-20T11:44:36;4.55;;;2.00;;
51382;SDS011;37475;43.358;1.248;2023-07-20T11:49:30;5.40;;;2.40;;
51382;SDS011;37475;43.358;1.248;2023-07-20T11:52:11;4.90;;;2.00;;
51382;SDS011;37475;43.358;1.248;2023-07-20T11:54:40;5.13;;;1.85;;
51382;SDS011;37475;43.358;1.248;2023-07-20T11:57:07;5.20;;;2.08;;
51382;SDS011;37475;43.358;1.248;2023-07-20T11:59:57;4.82;;;2.00;;
51382;SDS011;37475;43.358;1.248;2023-07-20T12:02:36;3.97;;;1.98;;
51382;SDS011;37475;43.358;1.248;2023-07-20T12:05:04;3.90;;;1.88;;
51382;SDS011;37475;43.358;1.248;2023-07-20T12:07:32;6.43;;;2.10;;
51382;SDS011;37475;43.358;1.248;2023-07-20T12:12:40;7.40;;;1.80;;
51382;SDS011;37475;43.358;1.248;2023-07-20T12:18:01;5.07;;;2.08;;
51382;SDS011;37475;43.358;1.248;2023-07-20T12:20:31;4.07;;;1.85;;
51382;SDS011;37475;43.358;1.248;2023-07-20T12:23:09;3.85;;;1.77;;
51382;SDS011;37475;43.358;1.248;2023-07-20T12:25:40;5.60;;;2.40;;
51382;SDS011;37475;43.358;1.248;2023-07-20T12:28:12;4.40;;;1.98;;
51382;SDS011;37475;43.358;1.248;2023-07-20T12:30:42;6.10;;;2.08;;
51382;SDS011;37475;43.358;1.248;2023-07-20T12:33:10;5.38;;;2.00;;
51382;SDS011;37475;43.358;1.248;2023-07-20T12:35:37;3.75;;;1.70;;
51382;SDS011;37475;43.358;1.248;2023-07-20T12:38:03;3.67;;;1.88;;
51382;SDS011;37475;43.358;1.248;2023-07-20T12:40:28;3.67;;;2.00;;
51382;SDS011;37475;43.358;1.248;2023-07-20T12:42:54;5.40;;;2.15;;
51382;SDS011;37475;43.358;1.248;2023-07-20T12:45:20;5.03;;;1.98;;
51382;SDS011;37475;43.358;1.248;2023-07-20T12:47:47;4.05;;;1.80;;
51382;SDS011;37475;43.358;1.248;2023-07-20T12:50:13;5.38;;;1.77;;
51382;SDS011;37475;43.358;1.248;2023-07-20T12:52:39;5.35;;;2.10;;
51382;SDS011;37475;43.358;1.248;2023-07-20T12:55:06;6.07;;;1.80;;
51382;SDS011;37475;43.358;1.248;2023-07-20T12:57:34;8.05;;;2.13;;
51382;SDS011;37475;43.358;1.248;2023-07-20T13:00:02;5.47;;;1.90;;
51382;SDS011;37475;43.358;1.248;2023-07-20T13:02:31;4.85;;;1.70;;
51382;SDS011;37475;43.358;1.248;2023-07-20T13:04:58;7.80;;;2.00;;
51382;SDS011;37475;43.358;1.248;2023-07-20T13:07:31;6.22;;;2.00;;
51382;SDS011;37475;43.358;1.248;2023-07-20T13:10:04;4.65;;;1.92;;
51382;SDS011;37475;43.358;1.248;2023-07-20T13:12:31;5.07;;;2.10;;
51382;SDS011;37475;43.358;1.248;2023-07-20T13:14:59;4.45;;;1.90;;
51382;SDS011;37475;43.358;1.248;2023-07-20T13:17:27;4.88;;;1.85;;
51382;SDS011;37475;43.358;1.248;2023-07-20T13:19:54;5.28;;;2.00;;
51382;SDS011;37475;43.358;1.248;2023-07-20T13:22:20;5.90;;;2.00;;
51382;SDS011;37475;43.358;1.248;2023-07-20T13:24:46;5.32;;;1.95;;
51382;SDS011;37475;43.358;1.248;2023-07-20T13:27:13;5.53;;;1.83;;
51382;SDS011;37475;43.358;1.248;2023-07-20T13:29:40;3.67;;;1.77;;
51382;SDS011;37475;43.358;1.248;2023-07-20T13:32:06;3.28;;;1.75;;
51382;SDS011;37475;43.358;1.248;2023-07-20T13:34:33;3.63;;;1.80;;
51382;SDS011;37475;43.358;1.248;2023-07-20T13:36:59;4.82;;;1.90;;
51382;SDS011;37475;43.358;1.248;2023-07-20T13:39:26;4.28;;;1.80;;
51382;SDS011;37475;43.358;1.248;2023-07-20T13:41:53;4.03;;;1.90;;
51382;SDS011;37475;43.358;1.248;2023-07-20T13:44:21;5.07;;;1.85;;
51382;SDS011;37475;43.358;1.248;2023-07-20T13:46:47;3.78;;;1.75;;
51382;SDS011;37475;43.358;1.248;2023-07-20T13:49:14;4.63;;;1.73;;
51382;SDS011;37475;43.358;1.248;2023-07-20T13:51:41;3.33;;;1.83;;
51382;SDS011;37475;43.358;1.248;2023-07-20T13:54:07;4.80;;;1.77;;
51382;SDS011;37475;43.358;1.248;2023-07-20T13:56:34;8.48;;;1.90;;
51382;SDS011;37475;43.358;1.248;2023-07-20T13:59:00;4.32;;;1.90;;
51382;SDS011;37475;43.358;1.248;2023-07-20T14:01:26;3.85;;;1.67;;
51382;SDS011;37475;43.358;1.248;2023-07-20T14:03:53;5.60;;;2.00;;
51382;SDS011;37475;43.358;1.248;2023-07-20T14:06:20;4.10;;;1.90;;
51382;SDS011;37475;43.358;1.248;2023-07-20T14:08:46;5.03;;;1.73;;
51382;SDS011;37475;43.358;1.248;2023-07-20T14:11:13;3.80;;;1.73;;
51382;SDS011;37475;43.358;1.248;2023-07-20T14:13:40;4.60;;;2.22;;
51382;SDS011;37475;43.358;1.248;2023-07-20T14:16:06;8.38;;;2.00;;
51382;SDS011;37475;43.358;1.248;2023-07-20T14:18:32;4.82;;;1.75;;
51382;SDS011;37475;43.358;1.248;2023-07-20T14:20:58;3.40;;;1.70;;
51382;SDS011;37475;43.358;1.248;2023-07-20T14:23:24;3.72;;;1.90;;
51382;SDS011;37475;43.358;1.248;2023-07-20T14:25:50;5.40;;;2.20;;
51382;SDS011;37475;43.358;1.248;2023-07-20T14:28:15;3.85;;;1.92;;
51382;SDS011;37475;43.358;1.248;2023-07-20T14:30:41;4.53;;;2.00;;
51382;SDS011;37475;43.358;1.248;2023-07-20T14:33:07;3.90;;;1.60;;
51382;SDS011;37475;43.358;1.248;2023-07-20T14:35:33;5.63;;;1.88;;
51382;SDS011;37475;43.358;1.248;2023-07-20T14:37:59;4.22;;;2.00;;
51382;SDS011;37475;43.358;1.248;2023-07-20T14:40:26;4.63;;;1.98;;
51382;SDS011;37475;43.358;1.248;2023-07-20T14:42:52;4.60;;;2.08;;
51382;SDS011;37475;43.358;1.248;2023-07-20T14:45:18;3.13;;;1.77;;
51382;SDS011;37475;43.358;1.248;2023-07-20T14:47:44;3.70;;;1.90;;
51382;SDS011;37475;43.358;1.248;2023-07-20T14:50:10;4.45;;;1.83;;
51382;SDS011;37475;43.358;1.248;2023-07-20T14:52:36;4.38;;;2.05;;
51382;SDS011;37475;43.358;1.248;2023-07-20T14:55:02;3.63;;;1.70;;
51382;SDS011;37475;43.358;1.248;2023-07-20T14:57:29;4.78;;;1.90;;
51382;SDS011;37475;43.358;1.248;2023-07-20T14:59:55;3.60;;;1.88;;
51382;SDS011;37475;43.358;1.248;2023-07-20T15:02:21;5.40;;;1.85;;
51382;SDS011;37475;43.358;1.248;2023-07-20T15:04:50;4.50;;;1.98;;
51382;SDS011;37475;43.358;1.248;2023-07-20T15:07:17;5.88;;;2.00;;
51382;SDS011;37475;43.358;1.248;2023-07-20T15:09:45;7.13;;;1.67;;
51382;SDS011;37475;43.358;1.248;2023-07-20T15:12:11;5.03;;;1.90;;
51382;SDS011;37475;43.358;1.248;2023-07-20T15:14:39;5.82;;;1.75;;